Hauptseite
METAR-TAF:

METAR-TAF

Flughäfen :

RAF Waddington

Waddington, England

Breite: 53-10N, Länge: 000-31W, Höhe: 68 m

Beobachtung

Neuester Wetterbericht von vor 22 Minuten, um 18:50 UTC
Wind 5 kt aus West/Südwest
Temperatur 20°C
Luftfeuchtigkeit 73%
Luftdruck 1005 hPa
Sichtweite 10 km oder mehr
Leicht bewölkt in der Höhe von 3000 ft
Durchbrochene Bewölkung in der Höhe von 13000 ft

METAR: EGXW 251850Z 25005KT 9999 FEW030 BKN130 20/15 Q1005 NOSIG RMK BLU BLU

Zeit: 20:12 (19:12 UTC)

Prognose

Neuester Wetterbericht von vor 2 Stunden und 53 Minuten, um 16:19 UTC
Gültige Prognose vom 25 um 18 UTC bis 26 um 12 UTC
Wind 10 kt aus West/Südwest
Sichtweite 10 km oder mehr
Aufgelockert bewölkt in der Höhe von 3000 ft

TAF: EGXW 251619Z 2518/2612 24010KT 9999 SCT030

Wetterbeobachtungen und Prognosen von mehr als 4000 Flughäfen (METAR und TAF Bericht).

Die verfügbaren Stationen werden durch gelbe und rote Markierungen auf der Karte dargestellt.

Führen Sie die Maus auf sie, um den Namen der Station zu sehen.

Darauf klicken, um die Beobachtung von Wetterbeobachtungen und Prognosen zu sehen.

Um die Karte zu ändern : klicken Sie auf den grünen Tasten mit einem schwarzen Kreuz Zum Vergrößern, auf den grünen Button mit einem Gedankenstrich zu verkleinern, oder auf die grünen Pfeile für benachbarte Karten.


METAR-TAF: